Terminal Aerodrome Forecast
Issued by NWS Brownsville, TX

Home | Current Version | Previous Version | Text Only | Print | Product List | Glossary On
Versions: 1 2 3 4 5 6 7 8 9 10 11 12 13 14 15 16 17
000
FTUS44 KBRO 021900 AAA
TAFHRL
TAF AMD
KHRL 021900Z 0219/0318 08013G19KT P6SM BKN045 BKN060
      TEMPO 0219/0221 11015G25KT 4SM -TSRA BKN035CB
     FM022200 11008KT P6SM VCSH SCT035 BKN100
     FM030000 12005KT P6SM SCT100 BKN150
     FM031700 17012G18KT P6SM SCT030 SCT150=

USA.gov is the U.S. government's official web portal to all federal, state and local government web resources and services.